Time;durP1;ratioP1;P1;durP2;ratioP2;P2;SDS_P1;SDS_P2;PMS_P1;PMS_P2;Temp;Humidity;BMP_temperature;BMP_pressure;BME280_temperature;BME280_humidity;BME280_pressure;Samples;Min_cycle;Max_cycle;Signal;HPM_P1;HPM_P2
2022/10/12 00:00:28;;;;;;;;;;;;;;;;;;5074896;28;1306;-74
2022/10/12 00:02:54;;;;;;;;;;;;;;;;;;5074868;28;1059;-75
2022/10/12 00:05:20;;;;;;;;;;;;;;;;;;5074933;28;857;-74
2022/10/12 00:07:47;;;;;;;;;;;;;;;;;;5074625;28;1063;-75
2022/10/12 00:10:13;;;;;;;;;;;;;;;;;;5072181;28;1478;-74
2022/10/12 00:12:40;;;;;;;;;;;;;;;;;;5073566;28;1067;-75
2022/10/12 00:15:07;;;;;;;;;;;;;;;;;;5073748;28;870;-74
2022/10/12 00:17:33;;;;;;;;;;;;;;;;;;5073361;28;1906;-74
2022/10/12 00:19:59;;;;;;;;;;;;;;;;;;5053533;28;1269;-74
2022/10/12 00:22:25;;;;;;;;;;;;;;;;;;5053664;28;957;-74
2022/10/12 00:24:52;;;;;;;;;;;;;;;;;;5053511;28;1142;-74
2022/10/12 00:27:18;;;;;;;;;;;;;;;;;;5052673;28;1059;-73
2022/10/12 00:29:46;;;;;;;;;;;;;;;;;;5052324;28;1366;-74
2022/10/12 00:32:12;;;;;;;;;;;;;;;;;;5053149;28;1074;-74
2022/10/12 00:34:38;;;;;;;;;;;;;;;;;;5053424;28;949;-74
2022/10/12 00:37:04;;;;;;;;;;;;;;;;;;5052004;28;1978;-73
2022/10/12 00:39:30;;;;;;;;;;;;;;;;;;5053311;28;1395;-74
2022/10/12 00:41:57;;;;;;;;;;;;;;;;;;5053025;28;1127;-74
2022/10/12 00:44:37;;;;;;;;;;;;;;;;;;5053078;28;775;-74
2022/10/12 00:47:05;;;;;;;;;;;;;;;;;;5053187;28;863;-74
2022/10/12 00:49:31;;;;;;;;;;;;;;;;;;5052040;28;1507;-75
2022/10/12 00:51:58;;;;;;;;;;;;;;;;;;5054029;28;1131;-75
2022/10/12 00:54:26;;;;;;;;;;;;;;;;;;5053803;28;1064;-74
2022/10/12 00:56:53;;;;;;;;;;;;;;;;;;5055904;28;1956;-75
2022/10/12 00:59:19;;;;;;;;;;;;;;;;;;5074258;28;1304;-74
2022/10/12 01:01:46;;;;;;;;;;;;;;;;;;5073792;28;932;-74
2022/10/12 01:04:13;;;;;;;;;;;;;;;;;;5072966;28;1075;-74
2022/10/12 01:06:39;;;;;;;;;;;;;;;;;;5088389;28;1188;-74
2022/10/12 01:09:06;;;;;;;;;;;;;;;;;;5072787;28;1341;-75
2022/10/12 01:11:32;;;;;;;;;;;;;;;;;;5073033;28;1070;-75
2022/10/12 01:13:58;;;;;;;;;;;;;;;;;;5088861;28;1158;-75
2022/10/12 01:16:24;;;;;;;;;;;;;;;;;;5072894;28;1074;-75
2022/10/12 01:18:52;;;;;;;;;;;;;;;;;;5072373;28;1906;-75
2022/10/12 01:21:20;;;;;;;;;;;;;;;;;;5072528;28;1055;-75
2022/10/12 01:24:11;;;;;;;;;;;;;;;;;;5072395;28;960;-74
2022/10/12 01:26:52;;;;;;;;;;;;;;;;;;5072261;28;1149;-75
2022/10/12 01:29:22;;;;;;;;;;;;;;;;;;5072174;28;1320;-75
2022/10/12 01:31:50;;;;;;;;;;;;;;;;;;5072233;28;1007;-75
2022/10/12 01:34:18;;;;;;;;;;;;;;;;;;5071814;28;1071;-74
2022/10/12 01:36:44;;;;;;;;;;;;;;;;;;5072240;28;1075;-75
2022/10/12 01:39:12;;;;;;;;;;;;;;;;;;5066392;28;1466;-74
2022/10/12 01:41:39;;;;;;;;;;;;;;;;;;5071701;28;1053;-74
2022/10/12 01:44:05;;;;;;;;;;;;;;;;;;5072221;28;893;-74
2022/10/12 01:46:38;;;;;;;;;;;;;;;;;;5071323;28;1395;-74
2022/10/12 01:49:05;;;;;;;;;;;;;;;;;;5052688;28;1444;-75
2022/10/12 01:51:33;;;;;;;;;;;;;;;;;;5050310;28;1204;-74
2022/10/12 01:54:01;;;;;;;;;;;;;;;;;;5050649;28;1044;-75
2022/10/12 01:56:28;;;;;;;;;;;;;;;;;;5051640;28;976;-75
2022/10/12 01:58:55;;;;;;;;;;;;;;;;;;5069857;28;1914;-75
2022/10/12 02:01:21;;;;;;;;;;;;;;;;;;5071505;28;897;-74
2022/10/12 02:03:48;;;;;;;;;;;;;;;;;;5087117;28;1052;-74
2022/10/12 02:06:17;;;;;;;;;;;;;;;;;;5071378;28;1063;-74
2022/10/12 02:08:45;;;;;;;;;;;;;;;;;;5071881;28;1362;-74
2022/10/12 02:11:12;;;;;;;;;;;;;;;;;;5086931;28;1250;-73
2022/10/12 02:13:40;;;;;;;;;;;;;;;;;;5086771;28;1090;-75
2022/10/12 02:16:07;;;;;;;;;;;;;;;;;;5071258;28;1075;-74
2022/10/12 02:18:33;;;;;;;;;;;;;;;;;;5054612;28;1981;-74
2022/10/12 02:20:59;;;;;;;;;;;;;;;;;;5051149;28;1282;-75
2022/10/12 02:23:27;;;;;;;;;;;;;;;;;;5051219;28;854;-74
2022/10/12 02:25:53;;;;;;;;;;;;;;;;;;5051701;28;1076;-74
2022/10/12 02:28:20;;;;;;;;;;;;;;;;;;5051192;28;937;-75
2022/10/12 02:30:47;;;;;;;;;;;;;;;;;;5051163;28;1307;-74
2022/10/12 02:33:14;;;;;;;;;;;;;;;;;;5049559;28;1257;-74
2022/10/12 02:35:43;;;;;;;;;;;;;;;;;;5051099;28;949;-76
2022/10/12 02:38:11;;;;;;;;;;;;;;;;;;5051620;28;1976;-74
2022/10/12 02:40:38;;;;;;;;;;;;;;;;;;5050164;28;1306;-75
2022/10/12 02:43:06;;;;;;;;;;;;;;;;;;5050659;28;1096;-75
2022/10/12 02:45:32;;;;;;;;;;;;;;;;;;5049761;28;1295;-74
2022/10/12 02:47:58;;;;;;;;;;;;;;;;;;5064893;28;1504;-74
2022/10/12 02:50:24;;;;;;;;;;;;;;;;;;5075201;28;1316;-74
2022/10/12 02:52:51;;;;;;;;;;;;;;;;;;5075721;28;870;-74
2022/10/12 02:55:17;;;;;;;;;;;;;;;;;;5075119;28;1127;-74
2022/10/12 02:57:45;;;;;;;;;;;;;;;;;;5064861;28;1943;-75
2022/10/12 03:00:12;;;;;;;;;;;;;;;;;;5054883;28;1387;-74
2022/10/12 03:02:38;;;;;;;;;;;;;;;;;;5055125;28;892;-74
2022/10/12 03:05:04;;;;;;;;;;;;;;;;;;5054777;28;1099;-74
2022/10/12 03:07:31;;;;;;;;;;;;;;;;;;5054977;28;1123;-75
2022/10/12 03:09:57;;;;;;;;;;;;;;;;;;5054593;28;1298;-75
2022/10/12 03:12:23;;;;;;;;;;;;;;;;;;5054861;28;1068;-74
2022/10/12 03:14:51;;;;;;;;;;;;;;;;;;5055022;28;1059;-74
2022/10/12 03:17:17;;;;;;;;;;;;;;;;;;5054807;28;1428;-74
2022/10/12 03:19:43;;;;;;;;;;;;;;;;;;5054825;28;1312;-74
2022/10/12 03:22:09;;;;;;;;;;;;;;;;;;5054212;28;929;-73
2022/10/12 03:24:35;;;;;;;;;;;;;;;;;;5054687;28;767;-74
2022/10/12 03:27:01;;;;;;;;;;;;;;;;;;5053293;28;1468;-74
2022/10/12 03:29:28;;;;;;;;;;;;;;;;;;5053467;28;1436;-74
2022/10/12 03:31:55;;;;;;;;;;;;;;;;;;5054546;28;1284;-72
2022/10/12 03:34:21;;;;;;;;;;;;;;;;;;5053276;28;1180;-74
2022/10/12 03:36:48;;;;;;;;;;;;;;;;;;5054866;28;1047;-74
2022/10/12 03:39:14;;;;;;;;;;;;;;;;;;5054403;28;1913;-74
2022/10/12 03:41:40;;;;;;;;;;;;;;;;;;5055930;28;1492;-74
2022/10/12 03:44:06;;;;;;;;;;;;;;;;;;5053346;28;1327;-74
2022/10/12 03:46:32;;;;;;;;;;;;;;;;;;5060118;28;1445;-74
2022/10/12 03:49:00;;;;;;;;;;;;;;;;;;5073961;28;1383;-74
2022/10/12 03:51:26;;;;;;;;;;;;;;;;;;5089394;28;1262;-74
2022/10/12 03:53:52;;;;;;;;;;;;;;;;;;5073985;28;1063;-74
2022/10/12 03:56:18;;;;;;;;;;;;;;;;;;5074724;28;806;-75
2022/10/12 03:58:45;;;;;;;;;;;;;;;;;;5057423;28;1910;-75
2022/10/12 04:01:11;;;;;;;;;;;;;;;;;;5053377;28;802;-74
2022/10/12 04:03:37;;;;;;;;;;;;;;;;;;5054154;28;1075;-74
2022/10/12 04:06:05;;;;;;;;;;;;;;;;;;5054179;28;1004;-74
2022/10/12 04:08:31;;;;;;;;;;;;;;;;;;5053086;28;1175;-74
2022/10/12 04:10:57;;;;;;;;;;;;;;;;;;5052477;28;1586;-75
2022/10/12 04:13:23;;;;;;;;;;;;;;;;;;5053866;28;1096;-74
2022/10/12 04:15:49;;;;;;;;;;;;;;;;;;5053393;28;1424;-74
2022/10/12 04:18:16;;;;;;;;;;;;;;;;;;5057260;28;1917;-74
2022/10/12 04:20:42;;;;;;;;;;;;;;;;;;5060253;28;1372;-74
2022/10/12 04:23:09;;;;;;;;;;;;;;;;;;5063888;28;1271;-74
2022/10/12 04:25:35;;;;;;;;;;;;;;;;;;5060445;28;1315;-74
2022/10/12 04:28:02;;;;;;;;;;;;;;;;;;5057557;28;1416;-75
2022/10/12 04:30:28;;;;;;;;;;;;;;;;;;5064960;28;1541;-74
2022/10/12 04:32:54;;;;;;;;;;;;;;;;;;5057159;28;1423;-74
2022/10/12 04:35:21;;;;;;;;;;;;;;;;;;5063353;28;1126;-74
2022/10/12 04:37:47;;;;;;;;;;;;;;;;;;5053644;28;1918;-73
2022/10/12 04:40:14;;;;;;;;;;;;;;;;;;5058843;28;1381;-74
2022/10/12 04:42:41;;;;;;;;;;;;;;;;;;5055725;28;1477;-73
2022/10/12 04:45:07;;;;;;;;;;;;;;;;;;5061307;28;1373;-73
2022/10/12 04:47:34;;;;;;;;;;;;;;;;;;5063333;28;995;-73
2022/10/12 04:50:00;;;;;;;;;;;;;;;;;;5070358;28;1388;-74
2022/10/12 04:52:26;;;;;;;;;;;;;;;;;;5064444;28;1505;-74
2022/10/12 04:54:52;;;;;;;;;;;;;;;;;;5051270;28;1102;-73
2022/10/12 04:57:20;;;;;;;;;;;;;;;;;;5049899;28;1183;-74
2022/10/12 04:59:46;;;;;;;;;;;;;;;;;;5066439;28;1962;-73
2022/10/12 05:02:12;;;;;;;;;;;;;;;;;;5066490;28;1605;-73
2022/10/12 05:04:38;;;;;;;;;;;;;;;;;;5060016;28;1469;-75
2022/10/12 05:07:05;;;;;;;;;;;;;;;;;;5052756;28;1102;-75
2022/10/12 05:09:31;;;;;;;;;;;;;;;;;;5050566;28;1454;-74
2022/10/12 05:11:57;;;;;;;;;;;;;;;;;;5054396;28;1782;-74
2022/10/12 05:14:24;;;;;;;;;;;;;;;;;;5062883;28;1436;-75
2022/10/12 05:16:51;;;;;;;;;;;;;;;;;;5069839;22;2103;-72
2022/10/12 05:19:17;;;;;;;;;;;;;;;;;;5050538;28;1977;-72
2022/10/12 05:21:43;;;;;;;;;;;;;;;;;;5052233;28;1186;-73
2022/10/12 05:24:10;;;;;;;;;;;;;;;;;;5051305;28;1542;-73
2022/10/12 05:26:36;;;;;;;;;;;;;;;;;;5043153;28;1419;-69
2022/10/12 05:29:02;;;;;;;;;;;;;;;;;;5038815;28;1198;-71
2022/10/12 05:31:30;;;;;;;;;;;;;;;;;;5034714;28;1457;-71
2022/10/12 05:33:56;;;;;;;;;;;;;;;;;;5047735;28;1446;-73
2022/10/12 05:36:22;;;;;;;;;;;;;;;;;;5050177;28;1395;-72
2022/10/12 05:38:48;;;;;;;;;;;;;;;;;;5048275;28;1979;-73
2022/10/12 05:41:14;;;;;;;;;;;;;;;;;;5049919;28;1341;-73
2022/10/12 05:43:41;;;;;;;;;;;;;;;;;;5050072;28;1469;-71
2022/10/12 05:46:07;;;;;;;;;;;;;;;;;;5049555;28;1458;-73
2022/10/12 05:48:34;;;;;;;;;;;;;;;;;;5048982;28;1403;-72
2022/10/12 05:51:01;;;;;;;;;;;;;;;;;;5047526;28;1429;-73
2022/10/12 05:53:27;;;;;;;;;;;;;;;;;;5051205;28;1138;-73
2022/10/12 05:55:53;;;;;;;;;;;;;;;;;;5051604;28;1324;-73
2022/10/12 05:58:19;;;;;;;;;;;;;;;;;;5046147;28;1946;-71
2022/10/12 06:00:46;;;;;;;;;;;;;;;;;;5050374;28;1391;-73
2022/10/12 06:03:12;;;;;;;;;;;;;;;;;;5051103;28;1225;-73
2022/10/12 06:05:39;;;;;;;;;;;;;;;;;;5051631;28;1317;-73
2022/10/12 06:08:07;;;;;;;;;;;;;;;;;;5051326;28;1484;-73
2022/10/12 06:10:34;;;;;;;;;;;;;;;;;;5050068;28;1469;-73
2022/10/12 06:13:00;;;;;;;;;;;;;;;;;;5049628;28;1907;-73
2022/10/12 06:15:26;;;;;;;;;;;;;;;;;;5048665;28;1454;-72
2022/10/12 06:17:52;;;;;;;;;;;;;;;;;;5047395;28;1541;-72
2022/10/12 06:20:18;;;;;;;;;;;;;;;;;;5049122;28;1922;-73
2022/10/12 06:22:46;;;;;;;;;;;;;;;;;;5050022;28;1255;-72
2022/10/12 06:25:12;;;;;;;;;;;;;;;;;;5049915;28;1108;-72
2022/10/12 06:27:38;;;;;;;;;;;;;;;;;;5043981;28;1779;-73
2022/10/12 06:30:05;;;;;;;;;;;;;;;;;;5049990;28;1545;-74
2022/10/12 06:32:31;;;;;;;;;;;;;;;;;;5047927;28;1211;-72
2022/10/12 06:34:57;;;;;;;;;;;;;;;;;;5045743;28;1780;-72
2022/10/12 06:37:24;;;;;;;;;;;;;;;;;;5057142;28;1546;-73
2022/10/12 06:39:51;;;;;;;;;;;;;;;;;;5049443;28;1910;-73
2022/10/12 06:42:17;;;;;;;;;;;;;;;;;;5058179;28;1243;-72
2022/10/12 06:44:49;;;;;;;;;;;;;;;;;;5066219;28;816;-72
2022/10/12 06:47:15;;;;;;;;;;;;;;;;;;5051171;28;1391;-73
2022/10/12 06:49:41;;;;;;;;;;;;;;;;;;5055119;28;1234;-73
2022/10/12 06:52:07;;;;;;;;;;;;;;;;;;5056509;28;1247;-73
2022/10/12 06:54:33;;;;;;;;;;;;;;;;;;5050852;28;1067;-74
2022/10/12 06:57:01;;;;;;;;;;;;;;;;;;5049933;28;1819;-73
2022/10/12 06:59:27;;;;;;;;;;;;;;;;;;5046535;28;1976;-72
2022/10/12 07:01:53;;;;;;;;;;;;;;;;;;5050724;28;1331;-73
2022/10/12 07:04:19;;;;;;;;;;;;;;;;;;5047853;28;1535;-73
2022/10/12 07:06:46;;;;;;;;;;;;;;;;;;5050744;28;1361;-73
2022/10/12 07:09:12;;;;;;;;;;;;;;;;;;5050436;28;1472;-73
2022/10/12 07:11:38;;;;;;;;;;;;;;;;;;5044062;28;1471;-73
2022/10/12 07:14:05;;;;;;;;;;;;;;;;;;5038007;28;1811;-73
2022/10/12 07:16:32;;;;;;;;;;;;;;;;;;5049002;28;1399;-69
2022/10/12 07:18:59;;;;;;;;;;;;;;;;;;5048089;28;1918;-71
2022/10/12 07:21:25;;;;;;;;;;;;;;;;;;5049052;28;1828;-71
2022/10/12 07:23:52;;;;;;;;;;;;;;;;;;5049830;28;1143;-71
2022/10/12 07:26:18;;;;;;;;;;;;;;;;;;5048701;28;1905;-72
2022/10/12 07:28:44;;;;;;;;;;;;;;;;;;5049282;28;1482;-72
2022/10/12 07:31:12;;;;;;;;;;;;;;;;;;5050482;28;1190;-71
2022/10/12 07:33:38;;;;;;;;;;;;;;;;;;5050138;28;1060;-72
2022/10/12 07:36:05;;;;;;;;;;;;;;;;;;5050208;28;1867;-72
2022/10/12 07:38:31;;;;;;;;;;;;;;;;;;5054393;28;1075;-73
2022/10/12 07:40:58;;;;;;;;;;;;;;;;;;5053679;28;1918;-70
2022/10/12 07:43:24;;;;;;;;;;;;;;;;;;5050837;28;1492;-72
2022/10/12 07:45:50;;;;;;;;;;;;;;;;;;5051400;28;1779;-70
2022/10/12 07:48:18;;;;;;;;;;;;;;;;;;5052664;28;1590;-72
2022/10/12 07:50:44;;;;;;;;;;;;;;;;;;5053893;28;1189;-72
2022/10/12 07:53:10;;;;;;;;;;;;;;;;;;5052668;28;1841;-71
2022/10/12 07:55:36;;;;;;;;;;;;;;;;;;5052830;28;1799;-71
2022/10/12 07:58:03;;;;;;;;;;;;;;;;;;5054050;28;1293;-71
2022/10/12 08:00:29;;;;;;;;;;;;;;;;;;5051497;28;1918;-71
2022/10/12 08:02:55;;;;;;;;;;;;;;;;;;5050870;28;1599;-72
2022/10/12 08:05:23;;;;;;;;;;;;;;;;;;5053629;28;1198;-70
2022/10/12 08:07:49;;;;;;;;;;;;;;;;;;5051885;28;1536;-71
2022/10/12 08:10:16;;;;;;;;;;;;;;;;;;5052181;28;1493;-71
2022/10/12 08:12:42;;;;;;;;;;;;;;;;;;5049416;28;1759;-71
2022/10/12 08:15:09;;;;;;;;;;;;;;;;;;5052042;28;1482;-71
2022/10/12 08:17:35;;;;;;;;;;;;;;;;;;5052617;28;1466;-71
2022/10/12 08:20:01;;;;;;;;;;;;;;;;;;5053210;28;1974;-71
2022/10/12 08:22:29;;;;;;;;;;;;;;;;;;5051880;28;1211;-71
2022/10/12 08:24:55;;;;;;;;;;;;;;;;;;5049985;28;1831;-69
2022/10/12 08:27:21;;;;;;;;;;;;;;;;;;5051038;28;1504;-73
2022/10/12 08:29:47;;;;;;;;;;;;;;;;;;5048160;28;1496;-72
2022/10/12 08:32:13;;;;;;;;;;;;;;;;;;5051937;28;1672;-71
2022/10/12 08:34:40;;;;;;;;;;;;;;;;;;5050047;28;1471;-70
2022/10/12 08:37:06;;;;;;;;;;;;;;;;;;5051968;28;1819;-71
2022/10/12 08:39:34;;;;;;;;;;;;;;;;;;5049774;28;1975;-71
2022/10/12 08:42:04;;;;;;;;;;;;;;;;;;5052571;28;1201;-71
2022/10/12 08:44:34;;;;;;;;;;;;;;;;;;5051955;28;1191;-72
2022/10/12 08:47:02;;;;;;;;;;;;;;;;;;5052077;28;1369;-72
2022/10/12 08:49:28;;;;;;;;;;;;;;;;;;5051915;28;1839;-71
2022/10/12 08:51:55;;;;;;;;;;;;;;;;;;5051483;28;1534;-71
2022/10/12 08:54:22;;;;;;;;;;;;;;;;;;5044764;28;1260;-73
2022/10/12 08:56:49;;;;;;;;;;;;;;;;;;5048943;28;1813;-71
2022/10/12 08:59:17;;;;;;;;;;;;;;;;;;5051535;28;1917;-71
2022/10/12 09:01:49;;;;;;;;;;;;;;;;;;5052545;28;1143;-72
2022/10/12 09:04:17;;;;;;;;;;;;;;;;;;5050873;28;1870;-72
2022/10/12 09:06:44;;;;;;;;;;;;;;;;;;5051943;28;1472;-70
2022/10/12 09:09:15;;;;;;;;;;;;;;;;;;5050951;28;1563;-71
2022/10/12 09:11:46;;;;;;;;;;;;;;;;;;5050644;28;1767;-71
2022/10/12 09:14:15;;;;;;;;;;;;;;;;;;5051414;28;1668;-70
2022/10/12 09:16:43;;;;;;;;;;;;;;;;;;5052318;28;1466;-72
2022/10/12 09:19:14;;;;;;;;;;;;;;;;;;5052323;28;1056;-72
2022/10/12 09:21:41;;;;;;;;;;;;;;;;;;5050996;28;1763;-71
2022/10/12 09:24:08;;;;;;;;;;;;;;;;;;5050848;28;1222;-71
2022/10/12 09:26:35;;;;;;;;;;;;;;;;;;5052172;28;1310;-72
2022/10/12 09:29:03;;;;;;;;;;;;;;;;;;5051339;28;1756;-71
2022/10/12 09:31:33;;;;;;;;;;;;;;;;;;5046077;28;1580;-71
2022/10/12 09:34:00;;;;;;;;;;;;;;;;;;5050982;28;1220;-72
2022/10/12 09:36:27;;;;;;;;;;;;;;;;;;5051749;28;1592;-71
2022/10/12 09:38:54;;;;;;;;;;;;;;;;;;5049376;28;1905;-72
2022/10/12 09:41:20;;;;;;;;;;;;;;;;;;5048579;28;1910;-69
2022/10/12 09:43:47;;;;;;;;;;;;;;;;;;5049477;28;1730;-71
2022/10/12 09:46:13;;;;;;;;;;;;;;;;;;5051474;28;1528;-72
2022/10/12 09:48:40;;;;;;;;;;;;;;;;;;5051925;28;1108;-71
2022/10/12 09:51:07;;;;;;;;;;;;;;;;;;5049838;28;1335;-71
2022/10/12 09:53:33;;;;;;;;;;;;;;;;;;5047726;28;1430;-72
2022/10/12 09:56:01;;;;;;;;;;;;;;;;;;5044442;28;1558;-72
2022/10/12 09:58:27;;;;;;;;;;;;;;;;;;5050792;28;1655;-71
2022/10/12 10:01:15;;;;;;;;;;;;;;;;;;5049460;28;1981;-71
2022/10/12 10:03:42;;;;;;;;;;;;;;;;;;5049706;28;1581;-72
2022/10/12 10:06:08;;;;;;;;;;;;;;;;;;5050214;28;1572;-71
2022/10/12 10:08:39;;;;;;;;;;;;;;;;;;5051779;28;1135;-72
2022/10/12 10:11:07;;;;;;;;;;;;;;;;;;5051040;28;1488;-72
2022/10/12 10:13:34;;;;;;;;;;;;;;;;;;5050468;28;1438;-72
2022/10/12 10:16:03;;;;;;;;;;;;;;;;;;5049353;28;1581;-72
2022/10/12 10:18:32;;;;;;;;;;;;;;;;;;5050593;28;1283;-72
2022/10/12 10:21:00;;;;;;;;;;;;;;;;;;5049106;28;1914;-71
2022/10/12 10:23:27;;;;;;;;;;;;;;;;;;5050373;28;1319;-71
2022/10/12 10:25:55;;;;;;;;;;;;;;;;;;5048402;28;1605;-72
2022/10/12 10:28:22;;;;;;;;;;;;;;;;;;5048664;28;1490;-72
2022/10/12 10:30:55;;;;;;;;;;;;;;;;;;5047219;28;1432;-72
2022/10/12 10:33:22;;;;;;;;;;;;;;;;;;5047433;28;1559;-71
2022/10/12 10:35:55;;;;;;;;;;;;;;;;;;5050458;28;1427;-72
2022/10/12 10:38:22;;;;;;;;;;;;;;;;;;5048581;28;1435;-71
2022/10/12 10:40:49;;;;;;;;;;;;;;;;;;5048264;28;1938;-72
2022/10/12 10:43:16;;;;;;;;;;;;;;;;;;5047905;28;1498;-72
2022/10/12 10:45:43;;;;;;;;;;;;;;;;;;5049258;28;1393;-72
2022/10/12 10:48:10;;;;;;;;;;;;;;;;;;5049351;28;1775;-72
2022/10/12 10:50:37;;;;;;;;;;;;;;;;;;5050616;28;1328;-72
2022/10/12 10:53:04;;;;;;;;;;;;;;;;;;5050184;28;1394;-72
2022/10/12 10:55:34;;;;;;;;;;;;;;;;;;5050569;28;1470;-72
2022/10/12 10:58:02;;;;;;;;;;;;;;;;;;5050301;28;1761;-72
2022/10/12 11:00:28;;;;;;;;;;;;;;;;;;5050335;28;1965;-72
2022/10/12 11:02:55;;;;;;;;;;;;;;;;;;5048578;28;1316;-72
2022/10/12 11:05:22;;;;;;;;;;;;;;;;;;5046913;28;1387;-72
2022/10/12 11:07:50;;;;;;;;;;;;;;;;;;5050287;28;1318;-72
2022/10/12 11:10:22;;;;;;;;;;;;;;;;;;5051257;28;1367;-71
2022/10/12 11:12:50;;;;;;;;;;;;;;;;;;5049389;28;1562;-71
2022/10/12 11:15:17;;;;;;;;;;;;;;;;;;5051720;28;1490;-72
2022/10/12 11:17:45;;;;;;;;;;;;;;;;;;5051984;28;1533;-72
2022/10/12 11:20:18;;;;;;;;;;;;;;;;;;5050975;28;1923;-72
2022/10/12 11:22:45;;;;;;;;;;;;;;;;;;5051656;28;1579;-71
2022/10/12 11:25:13;;;;;;;;;;;;;;;;;;5053049;28;1517;-72
2022/10/12 11:27:39;;;;;;;;;;;;;;;;;;5052970;28;1616;-71
2022/10/12 11:30:12;;;;;;;;;;;;;;;;;;5051177;28;1243;-72
2022/10/12 11:32:39;;;;;;;;;;;;;;;;;;5053171;28;1564;-72
2022/10/12 11:35:06;;;;;;;;;;;;;;;;;;5072064;28;1320;-72
2022/10/12 11:37:33;;;;;;;;;;;;;;;;;;5051104;28;1575;-71
2022/10/12 11:39:59;;;;;;;;;;;;;;;;;;5071601;22;3340;-77
2022/10/12 11:42:28;;;;;;;;;;;;;;;;;;5065272;28;1568;-78
2022/10/12 11:44:54;;;;;;;;;;;;;;;;;;5056984;28;1123;-77
2022/10/12 11:47:24;;;;;;;;;;;;;;;;;;5059438;28;1810;-77
2022/10/12 11:49:51;;;;;;;;;;;;;;;;;;5062177;28;1746;-78
2022/10/12 11:52:17;;;;;;;;;;;;;;;;;;5070212;28;2048;-78
2022/10/12 11:54:44;;;;;;;;;;;;;;;;;;5065616;28;1482;-78
2022/10/12 11:57:14;;;;;;;;;;;;;;;;;;5054532;28;1921;-76
2022/10/12 11:59:41;;;;;;;;;;;;;;;;;;5053856;28;1499;-77
2022/10/12 12:02:12;;;;;;;;;;;;;;;;;;5064060;28;964;-78
2022/10/12 12:04:42;;;;;;;;;;;;;;;;;;5059938;28;1420;-77
2022/10/12 12:07:23;;;;;;;;;;;;;;;;;;5052413;28;1120;-77
2022/10/12 12:09:49;;;;;;;;;;;;;;;;;;5053529;28;1305;-77
2022/10/12 12:12:21;;;;;;;;;;;;;;;;;;5061076;28;1987;-75
2022/10/12 12:14:48;;;;;;;;;;;;;;;;;;5065359;28;1167;-78
2022/10/12 12:17:20;;;;;;;;;;;;;;;;;;5062758;28;1346;-77
2022/10/12 12:19:48;;;;;;;;;;;;;;;;;;5061657;28;1343;-77
2022/10/12 12:22:15;;;;;;;;;;;;;;;;;;5058855;28;1270;-76
2022/10/12 12:24:50;;;;;;;;;;;;;;;;;;5060170;28;1363;-75
2022/10/12 12:27:20;;;;;;;;;;;;;;;;;;5062931;28;1421;-78
2022/10/12 12:29:49;;;;;;;;;;;;;;;;;;5067957;28;1417;-78
2022/10/12 12:32:15;;;;;;;;;;;;;;;;;;5059473;28;1910;-78
2022/10/12 12:34:44;;;;;;;;;;;;;;;;;;5070098;28;1476;-78
2022/10/12 12:37:12;;;;;;;;;;;;;;;;;;5065259;28;1745;-78
2022/10/12 12:39:38;;;;;;;;;;;;;;;;;;5088128;28;1382;-78
2022/10/12 12:42:05;;;;;;;;;;;;;;;;;;5071609;28;1099;-78
2022/10/12 12:44:35;;;;;;;;;;;;;;;;;;5073058;28;1268;-78
2022/10/12 12:47:17;;;;;;;;;;;;;;;;;;5074465;28;1083;-77
2022/10/12 12:49:44;;;;;;;;;;;;;;;;;;5073136;28;1302;-77
2022/10/12 12:52:12;;;;;;;;;;;;;;;;;;5072804;28;1914;-79
2022/10/12 12:54:41;;;;;;;;;;;;;;;;;;5073886;28;825;-79
2022/10/12 12:57:13;;;;;;;;;;;;;;;;;;5054181;28;1261;-78
2022/10/12 12:59:46;;;;;;;;;;;;;;;;;;5053646;28;1709;-78
2022/10/12 13:02:22;;;;;;;;;;;;;;;;;;5066918;28;1190;-79
2022/10/12 13:05:00;;;;;;;;;;;;;;;;;;5071648;28;1481;-78
2022/10/12 13:07:33;;;;;;;;;;;;;;;;;;5074204;28;933;-80
2022/10/12 13:10:05;;;;;;;;;;;;;;;;;;5089066;28;1343;-78
2022/10/12 13:12:46;;;;;;;;;;;;;;;;;;5072015;28;1898;-79
2022/10/12 13:15:27;;;;;;;;;;;;;;;;;;5070322;28;1167;-78
2022/10/12 13:18:15;;;;;;;;;;;;;;;;;;5071971;28;924;-78
2022/10/12 13:20:41;;;;;;;;;;;;;;;;;;5073252;28;1337;-77
2022/10/12 13:23:11;;;;;;;;;;;;;;;;;;5072598;28;1134;-77
2022/10/12 13:25:40;;;;;;;;;;;;;;;;;;5059437;28;1332;-77
2022/10/12 13:28:07;;;;;;;;;;;;;;;;;;5072639;28;853;-79
2022/10/12 13:30:34;;;;;;;;;;;;;;;;;;5072472;28;1914;-78
2022/10/12 13:33:02;;;;;;;;;;;;;;;;;;5065275;28;1412;-78
2022/10/12 13:35:30;;;;;;;;;;;;;;;;;;5052820;28;1135;-76
2022/10/12 13:37:59;;;;;;;;;;;;;;;;;;5061210;28;1448;-79
2022/10/12 13:40:31;;;;;;;;;;;;;;;;;;5064197;28;1627;-79
2022/10/12 13:43:12;;;;;;;;;;;;;;;;;;5074830;28;766;-80
2022/10/12 13:45:43;;;;;;;;;;;;;;;;;;5067759;28;1899;-78
2022/10/12 13:48:11;;;;;;;;;;;;;;;;;;5063131;28;1489;-77
2022/10/12 13:50:38;;;;;;;;;;;;;;;;;;5071056;28;1445;-78
2022/10/12 13:53:12;;;;;;;;;;;;;;;;;;5068239;28;1922;-78
2022/10/12 13:55:40;;;;;;;;;;;;;;;;;;5061841;28;1402;-77
2022/10/12 13:58:18;;;;;;;;;;;;;;;;;;5058874;28;1810;-77
2022/10/12 14:00:46;;;;;;;;;;;;;;;;;;5061313;28;1408;-79
2022/10/12 14:03:12;;;;;;;;;;;;;;;;;;5068438;28;1382;-79
2022/10/12 14:05:42;;;;;;;;;;;;;;;;;;5058874;28;1126;-78
2022/10/12 14:08:10;;;;;;;;;;;;;;;;;;5052911;28;1060;-79
2022/10/12 14:10:37;;;;;;;;;;;;;;;;;;5051806;28;1389;-78
2022/10/12 14:13:04;;;;;;;;;;;;;;;;;;5055358;28;1983;-77
2022/10/12 14:15:32;;;;;;;;;;;;;;;;;;5070047;28;1587;-78
2022/10/12 14:17:58;;;;;;;;;;;;;;;;;;5056220;28;1144;-78
2022/10/12 14:20:27;;;;;;;;;;;;;;;;;;5062690;28;1291;-77
2022/10/12 14:22:53;;;;;;;;;;;;;;;;;;5072406;28;1285;-79
2022/10/12 14:25:20;;;;;;;;;;;;;;;;;;5063478;28;1441;-79
2022/10/12 14:27:46;;;;;;;;;;;;;;;;;;5068320;28;1423;-78
2022/10/12 14:30:18;;;;;;;;;;;;;;;;;;5063804;28;1390;-79
2022/10/12 14:32:50;;;;;;;;;;;;;;;;;;5067987;28;2010;-78
2022/10/12 14:35:21;;;;;;;;;;;;;;;;;;5070615;28;1364;-79
2022/10/12 14:37:47;;;;;;;;;;;;;;;;;;5061984;28;1594;-79
2022/10/12 14:40:24;;;;;;;;;;;;;;;;;;5070973;28;1404;-79
2022/10/12 14:42:54;;;;;;;;;;;;;;;;;;5079586;28;1459;-78
2022/10/12 14:45:23;;;;;;;;;;;;;;;;;;5070487;28;1609;-79
2022/10/12 14:47:49;;;;;;;;;;;;;;;;;;5075033;28;993;-80
2022/10/12 14:50:16;;;;;;;;;;;;;;;;;;5063217;28;1492;-79
2022/10/12 14:52:43;;;;;;;;;;;;;;;;;;5073894;28;1981;-79
2022/10/12 14:55:10;;;;;;;;;;;;;;;;;;5076275;28;1118;-77
2022/10/12 14:57:36;;;;;;;;;;;;;;;;;;5081802;28;1508;-78
2022/10/12 15:00:03;;;;;;;;;;;;;;;;;;5057121;28;1340;-78
2022/10/12 15:02:31;;;;;;;;;;;;;;;;;;5056221;28;1269;-77
2022/10/12 15:04:58;;;;;;;;;;;;;;;;;;5080645;28;1115;-76
2022/10/12 15:07:26;;;;;;;;;;;;;;;;;;5080892;28;886;-77
2022/10/12 15:09:53;;;;;;;;;;;;;;;;;;5076117;28;1306;-77
2022/10/12 15:12:20;;;;;;;;;;;;;;;;;;5072009;28;1909;-74
2022/10/12 15:14:48;;;;;;;;;;;;;;;;;;5070251;28;1531;-76
2022/10/12 15:17:15;;;;;;;;;;;;;;;;;;5054438;28;1138;-77
2022/10/12 15:19:42;;;;;;;;;;;;;;;;;;5064309;28;1448;-75
2022/10/12 15:22:09;;;;;;;;;;;;;;;;;;5051896;28;1149;-76
2022/10/12 15:24:36;;;;;;;;;;;;;;;;;;5051027;28;874;-75
2022/10/12 15:27:02;;;;;;;;;;;;;;;;;;5050944;28;1068;-74
2022/10/12 15:29:28;;;;;;;;;;;;;;;;;;5050738;28;1332;-72
2022/10/12 15:31:54;;;;;;;;;;;;;;;;;;5053000;28;1910;-75
2022/10/12 15:34:21;;;;;;;;;;;;;;;;;;5070799;28;867;-75
2022/10/12 15:36:48;;;;;;;;;;;;;;;;;;5062683;28;1440;-75
2022/10/12 15:39:15;;;;;;;;;;;;;;;;;;5058917;28;1420;-76
2022/10/12 15:41:41;;;;;;;;;;;;;;;;;;5050546;28;953;-73
2022/10/12 15:44:08;;;;;;;;;;;;;;;;;;5052436;28;1418;-77
2022/10/12 15:46:35;;;;;;;;;;;;;;;;;;5064545;28;1266;-75
2022/10/12 15:49:01;;;;;;;;;;;;;;;;;;5070394;28;1332;-72
2022/10/12 15:51:27;;;;;;;;;;;;;;;;;;5085970;28;1927;-73
2022/10/12 15:53:54;;;;;;;;;;;;;;;;;;5070335;28;850;-72
2022/10/12 15:56:21;;;;;;;;;;;;;;;;;;5070845;28;1128;-73
2022/10/12 15:58:47;;;;;;;;;;;;;;;;;;5073425;28;1312;-73
2022/10/12 16:01:14;;;;;;;;;;;;;;;;;;5061500;28;1498;-74
2022/10/12 16:03:40;;;;;;;;;;;;;;;;;;5059768;28;1138;-73
2022/10/12 16:06:07;;;;;;;;;;;;;;;;;;5071770;28;1183;-73
2022/10/12 16:08:33;;;;;;;;;;;;;;;;;;5074107;28;1294;-72
2022/10/12 16:11:01;;;;;;;;;;;;;;;;;;5067107;28;1743;-73
2022/10/12 16:13:27;;;;;;;;;;;;;;;;;;5058451;28;1969;-74
2022/10/12 16:15:53;;;;;;;;;;;;;;;;;;5065043;28;1414;-75
2022/10/12 16:18:19;;;;;;;;;;;;;;;;;;5060059;28;1372;-76
2022/10/12 16:20:47;;;;;;;;;;;;;;;;;;5051842;28;1326;-74
2022/10/12 16:23:14;;;;;;;;;;;;;;;;;;5051834;28;1079;-75
2022/10/12 16:25:40;;;;;;;;;;;;;;;;;;5048602;28;1313;-74
2022/10/12 16:28:09;;;;;;;;;;;;;;;;;;5051578;28;898;-74
2022/10/12 16:30:35;;;;;;;;;;;;;;;;;;5055173;28;1578;-76
2022/10/12 16:33:01;;;;;;;;;;;;;;;;;;5055430;28;1973;-73
2022/10/12 16:35:28;;;;;;;;;;;;;;;;;;5047971;28;1305;-73
2022/10/12 16:37:54;;;;;;;;;;;;;;;;;;5060545;28;1116;-73
2022/10/12 16:40:20;;;;;;;;;;;;;;;;;;5054131;28;1463;-73
2022/10/12 16:42:51;;;;;;;;;;;;;;;;;;5066418;28;1147;-74
2022/10/12 16:45:19;;;;;;;;;;;;;;;;;;5058979;28;1125;-74
2022/10/12 16:47:48;;;;;;;;;;;;;;;;;;5058628;28;1420;-75
2022/10/12 16:50:15;;;;;;;;;;;;;;;;;;5061098;28;1495;-74
2022/10/12 16:52:42;;;;;;;;;;;;;;;;;;5062954;28;1975;-75
2022/10/12 16:55:08;;;;;;;;;;;;;;;;;;5060201;28;1432;-76
2022/10/12 16:57:35;;;;;;;;;;;;;;;;;;5058997;28;1280;-75
2022/10/12 17:00:01;;;;;;;;;;;;;;;;;;5060507;28;1470;-75
2022/10/12 17:02:29;;;;;;;;;;;;;;;;;;5056835;28;1523;-73
2022/10/12 17:04:55;;;;;;;;;;;;;;;;;;5058149;28;1453;-75